Time;durP1;ratioP1;P1;durP2;ratioP2;P2;SDS_P1;SDS_P2;PMS_P1;PMS_P2;Temp;Humidity;BMP_temperature;BMP_pressure;BME280_temperature;BME280_humidity;BME280_pressure;Samples;Min_cycle;Max_cycle;Signal;HPM_P1;HPM_P2
2021/03/15 00:02:05;;;;;;;8.90;6.40;;;4.90;99.90;;;;;;5094875;28;20595;-69
2021/03/15 00:04:31;;;;;;;8.93;6.73;;;5.00;1.00;;;;;;5094839;28;20164;-69
2021/03/15 00:06:56;;;;;;;6.77;6.00;;;5.10;99.90;;;;;;5094639;28;20248;-69
2021/03/15 00:09:22;;;;;;;7.57;6.20;;;5.10;1.00;;;;;;5094758;28;20532;-68
2021/03/15 00:11:47;;;;;;;8.40;6.13;;;5.20;1.00;;;;;;5094816;28;20656;-69
2021/03/15 00:14:13;;;;;;;10.70;7.13;;;5.10;99.90;;;;;;5094677;28;20171;-69
2021/03/15 00:16:39;;;;;;;10.60;7.20;;;5.20;99.90;;;;;;5094591;28;20183;-69
2021/03/15 00:19:04;;;;;;;8.27;5.77;;;5.20;1.00;;;;;;5094564;28;20179;-68
2021/03/15 00:21:30;;;;;;;9.77;5.93;;;5.10;1.00;;;;;;5093222;28;20195;-68
2021/03/15 00:23:55;;;;;;;8.63;6.53;;;5.20;1.00;;;;;;5094479;28;20167;-69
2021/03/15 00:26:21;;;;;;;13.40;7.23;;;5.10;1.00;;;;;;5094344;28;20199;-69
2021/03/15 00:28:46;;;;;;;12.00;7.27;;;5.00;99.90;;;;;;5094591;28;20169;-69
2021/03/15 00:31:12;;;;;;;10.20;6.60;;;5.10;1.00;;;;;;5094304;28;20164;-69
2021/03/15 00:33:37;;;;;;;10.00;5.90;;;5.20;99.90;;;;;;5094511;28;20593;-68
2021/03/15 00:36:03;;;;;;;9.73;6.43;;;5.30;1.00;;;;;;5094308;28;20537;-69
2021/03/15 00:38:29;;;;;;;9.03;6.27;;;5.20;62.50;;;;;;5094249;28;20574;-69
2021/03/15 00:40:54;;;;;;;9.83;7.20;;;5.30;1.00;;;;;;5094162;28;20380;-69
2021/03/15 00:43:20;;;;;;;10.00;6.27;;;5.20;99.90;;;;;;5094069;28;20184;-69
2021/03/15 00:45:45;;;;;;;10.03;6.50;;;5.40;1.00;;;;;;5094032;28;20202;-69
2021/03/15 00:48:11;;;;;;;8.60;5.80;;;5.50;1.00;;;;;;5094299;28;20167;-69
2021/03/15 00:50:42;;;;;;;9.43;6.20;;;5.40;99.90;;;;;;5093973;28;20164;-69
2021/03/15 00:53:09;;;;;;;12.15;7.07;;;5.30;1.00;;;;;;5093936;28;20214;-69
2021/03/15 00:55:35;;;;;;;8.68;6.43;;;5.30;1.00;;;;;;5093925;28;20171;-69
2021/03/15 00:58:02;;;;;;;15.27;7.38;;;5.20;1.00;;;;;;5094125;28;20168;-69
2021/03/15 01:00:31;;;;;;;12.90;8.55;;;5.40;99.90;;;;;;5093729;28;20587;-69
2021/03/15 01:02:57;;;;;;;7.70;6.57;;;5.40;41.60;;;;;;5093933;28;20187;-69
2021/03/15 01:05:28;;;;;;;12.15;7.43;;;5.40;1.00;;;;;;5093644;28;20172;-69
2021/03/15 01:07:54;;;;;;;10.68;7.07;;;5.30;1.00;;;;;;5093824;28;20220;-69
2021/03/15 01:10:22;;;;;;;14.23;8.30;;;5.30;99.90;;;;;;5093661;28;20174;-69
2021/03/15 01:12:48;;;;;;;10.25;7.10;;;5.30;99.90;;;;;;5093558;28;20429;-69
2021/03/15 01:15:14;;;;;;;23.57;6.90;;;5.30;1.00;;;;;;5093631;28;20168;-69
2021/03/15 01:17:39;;;;;;;18.27;7.20;;;5.30;99.90;;;;;;5094610;28;20167;-69
2021/03/15 01:20:06;;;;;;;11.40;6.87;;;5.40;1.00;;;;;;5097546;28;20388;-69
2021/03/15 01:22:32;;;;;;;12.73;6.95;;;5.30;99.90;;;;;;5093674;28;20191;-69
2021/03/15 01:24:58;;;;;;;9.18;6.15;;;5.40;1.00;;;;;;5093970;28;20168;-69
2021/03/15 01:27:23;;;;;;;10.93;5.90;;;5.40;1.00;;;;;;5093254;28;20203;-69
2021/03/15 01:29:49;;;;;;;14.13;7.20;;;5.20;1.00;;;;;;5093354;28;20171;-69
2021/03/15 01:32:14;;;;;;;14.10;6.87;;;5.50;1.00;;;;;;5093174;28;20206;-69
2021/03/15 01:34:40;;;;;;;10.50;6.70;;;5.50;99.90;;;;;;5093278;28;20163;-70
2021/03/15 01:37:05;;;;;;;15.13;7.33;;;5.60;99.90;;;;;;5093395;28;20250;-68
2021/03/15 01:39:31;;;;;;;13.10;7.27;;;5.60;99.90;;;;;;5093380;28;20249;-69
2021/03/15 01:42:01;;;;;;;13.33;7.53;;;5.60;99.90;;;;;;5092973;28;20187;-69
2021/03/15 01:44:26;;;;;;;13.38;7.07;;;5.60;1.00;;;;;;5093050;28;20462;-69
2021/03/15 01:46:52;;;;;;;18.13;7.87;;;5.70;98.60;;;;;;5093045;28;20703;-69
2021/03/15 01:49:17;;;;;;;12.70;7.43;;;5.50;3.00;;;;;;5093077;28;20246;-69
2021/03/15 01:51:43;;;;;;;10.50;7.33;;;5.60;99.90;;;;;;5092978;28;20559;-69
2021/03/15 01:54:12;;;;;;;11.55;6.32;;;5.70;1.00;;;;;;5092972;28;20693;-69
2021/03/15 01:56:37;;;;;;;16.40;6.95;;;5.60;99.90;;;;;;5092997;28;20167;-69
2021/03/15 01:59:03;;;;;;;9.50;6.37;;;5.70;1.00;;;;;;5093316;28;20197;-69
2021/03/15 02:01:29;;;;;;;12.27;6.88;;;5.60;99.90;;;;;;5092954;28;20187;-68
2021/03/15 02:03:55;;;;;;;16.77;7.47;;;5.40;99.90;;;;;;5093292;28;20172;-68
2021/03/15 02:06:21;;;;;;;18.33;7.07;;;5.50;1.00;;;;;;5092997;28;20448;-68
2021/03/15 02:08:47;;;;;;;18.03;6.50;;;5.70;1.00;;;;;;5093455;28;20514;-68
2021/03/15 02:11:23;;;;;;;16.20;6.60;;;5.80;1.00;;;;;;5092823;28;20178;-68
2021/03/15 02:14:39;;;;;;;13.32;7.63;;;5.80;99.90;;;;;;5093093;28;20151;-69
2021/03/15 02:17:18;;;;;;;8.55;6.32;;;5.80;99.90;;;;;;5058491;28;20233;-67
2021/03/15 02:20:13;;;;;;;9.05;7.38;;;5.80;99.90;;;;;;5093115;28;20144;-68
2021/03/15 02:22:48;;;;;;;12.70;7.47;;;5.80;99.90;;;;;;5095947;28;20191;-69
2021/03/15 02:25:49;;;;;;;16.50;6.43;;;5.80;99.90;;;;;;5097151;28;20631;-69
2021/03/15 02:28:20;;;;;;;12.23;7.22;;;5.70;99.90;;;;;;5065605;28;20187;-69
2021/03/15 02:31:04;;;;;;;16.80;8.20;;;5.60;1.00;;;;;;5096949;28;20156;-67
2021/03/15 02:34:09;;;;;;;14.95;6.78;;;5.70;99.90;;;;;;5096587;28;20190;-68
2021/03/15 02:36:41;;;;;;;13.13;6.95;;;5.80;1.00;;;;;;5096950;28;20249;-68
2021/03/15 02:39:12;;;;;;;13.18;6.05;;;5.60;1.00;;;;;;5096841;28;20189;-69
2021/03/15 02:41:40;;;;;;;13.95;6.88;;;5.70;99.90;;;;;;5096484;28;20244;-68
2021/03/15 02:44:08;;;;;;;9.88;6.18;;;5.80;99.90;;;;;;5096480;28;20194;-68
2021/03/15 02:46:36;;;;;;;11.88;6.65;;;5.70;99.90;;;;;;5096361;28;20555;-68
2021/03/15 02:49:06;;;;;;;13.98;6.25;;;5.70;99.90;;;;;;5096398;28;20174;-69
2021/03/15 02:51:37;;;;;;;14.57;5.95;;;5.80;99.90;;;;;;5096208;28;20183;-68
2021/03/15 02:54:03;;;;;;;14.60;5.82;;;5.90;99.90;;;;;;5096475;28;20233;-68
2021/03/15 02:56:32;;;;;;;8.75;6.30;;;5.90;99.90;;;;;;5096144;28;20707;-68
2021/03/15 02:59:01;;;;;;;11.98;6.20;;;6.00;99.90;;;;;;5096120;28;20172;-68
2021/03/15 03:01:28;;;;;;;9.20;6.43;;;5.80;11.10;;;;;;5096022;28;20167;-68
2021/03/15 03:03:56;;;;;;;11.52;6.00;;;5.90;99.90;;;;;;5095963;28;20220;-69
2021/03/15 03:06:25;;;;;;;12.10;5.35;;;5.80;99.90;;;;;;5095952;28;20191;-68
2021/03/15 03:08:53;;;;;;;11.07;5.10;;;5.80;1.00;;;;;;5096287;28;20152;-68
2021/03/15 03:11:21;;;;;;;6.20;3.72;;;5.70;1.00;;;;;;5095811;28;20167;-68
2021/03/15 03:13:49;;;;;;;4.75;3.53;;;5.70;1.00;;;;;;5096141;28;20246;-69
2021/03/15 03:16:15;;;;;;;5.30;3.50;;;5.70;1.00;;;;;;5095753;28;20175;-69
2021/03/15 03:18:42;;;;;;;5.32;2.30;;;5.70;99.90;;;;;;5095664;28;20171;-68
2021/03/15 03:21:08;;;;;;;5.13;2.67;;;5.80;1.00;;;;;;5095934;28;20197;-69
2021/03/15 03:23:36;;;;;;;7.28;2.75;;;6.00;1.00;;;;;;5095675;28;20644;-68
2021/03/15 03:26:04;;;;;;;6.43;2.20;;;5.90;1.00;;;;;;5095506;28;20203;-68
2021/03/15 03:28:30;;;;;;;4.55;2.38;;;5.90;1.00;;;;;;5095536;28;20189;-69
2021/03/15 03:30:59;;;;;;;4.60;2.30;;;5.90;99.90;;;;;;5095778;28;20171;-69
2021/03/15 03:33:24;;;;;;;4.65;1.98;;;6.00;99.90;;;;;;5095152;28;20241;-68
2021/03/15 03:35:50;;;;;;;6.23;2.33;;;5.90;99.90;;;;;;5095414;28;20640;-69
2021/03/15 03:38:17;;;;;;;6.10;2.43;;;5.90;99.90;;;;;;5095446;28;20601;-69
2021/03/15 03:40:43;;;;;;;7.38;1.70;;;5.80;99.90;;;;;;5095265;28;20645;-69
2021/03/15 03:43:09;;;;;;;2.53;1.83;;;5.80;99.90;;;;;;5095366;28;20192;-68
2021/03/15 03:45:34;;;;;;;5.07;2.20;;;5.80;99.90;;;;;;5095307;28;20179;-68
2021/03/15 03:48:02;;;;;;;2.13;1.50;;;5.70;99.90;;;;;;5095285;28;20532;-68
2021/03/15 03:50:31;;;;;;;5.00;1.80;;;5.80;1.00;;;;;;5095220;28;20170;-69
2021/03/15 03:53:10;;;;;;;2.50;1.90;;;5.80;1.00;;;;;;5095104;28;20656;-69
2021/03/15 03:56:02;;;;;;;5.25;1.50;;;5.90;1.00;;;;;;5095381;28;20152;-69
2021/03/15 03:58:31;;;;;;;3.20;2.10;;;5.80;1.00;;;;;;5085893;28;20236;-69
2021/03/15 04:00:57;;;;;;;3.25;2.25;;;5.80;1.00;;;;;;5094919;28;20199;-69
2021/03/15 04:03:26;;;;;;;3.72;2.40;;;5.90;1.00;;;;;;5094871;28;20597;-69
2021/03/15 04:06:06;;;;;;;6.32;3.20;;;6.00;1.00;;;;;;5094706;28;20191;-69
2021/03/15 04:08:48;;;;;;;5.20;3.20;;;5.90;1.00;;;;;;5095123;28;20156;-69
2021/03/15 04:11:14;;;;;;;7.32;3.63;;;5.80;1.00;;;;;;5094656;28;20155;-69
2021/03/15 04:13:43;;;;;;;7.80;4.22;;;5.80;1.00;;;;;;5094738;28;20270;-69
2021/03/15 04:16:12;;;;;;;7.20;3.50;;;5.80;1.00;;;;;;5094894;28;20168;-69
2021/03/15 04:18:42;;;;;;;3.92;3.33;;;6.00;1.00;;;;;;5094577;28;20579;-69
2021/03/15 04:21:09;;;;;;;6.00;3.38;;;6.00;1.00;;;;;;5095041;28;20156;-69
2021/03/15 04:23:38;;;;;;;7.38;3.55;;;5.90;1.00;;;;;;5094494;28;20175;-68
2021/03/15 04:26:06;;;;;;;11.02;4.85;;;5.80;1.00;;;;;;5094476;28;20556;-69
2021/03/15 04:28:35;;;;;;;6.07;3.80;;;6.00;1.00;;;;;;5094664;28;20210;-69
2021/03/15 04:31:01;;;;;;;13.15;3.97;;;5.90;1.00;;;;;;5094381;28;20636;-69
2021/03/15 04:33:28;;;;;;;5.68;3.75;;;6.00;1.00;;;;;;5094309;28;20187;-69
2021/03/15 04:35:54;;;;;;;7.40;4.10;;;5.90;1.00;;;;;;5094262;28;20221;-69
2021/03/15 04:38:21;;;;;;;8.43;4.60;;;5.90;1.00;;;;;;5094275;28;20167;-69
2021/03/15 04:40:49;;;;;;;5.32;3.80;;;6.00;38.90;;;;;;5094085;28;20889;-69
2021/03/15 04:43:16;;;;;;;7.15;4.32;;;6.10;29.50;;;;;;5094006;28;20245;-69
2021/03/15 04:45:45;;;;;;;5.70;4.07;;;6.00;1.00;;;;;;5093356;28;20655;-69
2021/03/15 04:48:31;;;;;;;7.20;4.50;;;6.10;27.20;;;;;;5094086;28;20540;-69
2021/03/15 04:50:59;;;;;;;6.30;3.70;;;6.20;5.00;;;;;;5094036;28;20148;-69
2021/03/15 04:53:27;;;;;;;6.70;3.50;;;6.10;1.00;;;;;;5093742;28;20271;-69
2021/03/15 04:55:56;;;;;;;8.70;5.55;;;6.10;1.00;;;;;;5093822;28;20168;-68
2021/03/15 04:58:23;;;;;;;8.80;5.35;;;6.20;1.00;;;;;;5093837;28;20648;-69
2021/03/15 05:00:50;;;;;;;7.60;4.15;;;6.20;1.00;;;;;;5094154;28;20341;-69
2021/03/15 05:03:17;;;;;;;6.28;5.03;;;6.20;1.00;;;;;;5093622;28;20687;-69
2021/03/15 05:05:44;;;;;;;6.50;5.47;;;6.00;1.00;;;;;;5093521;28;20172;-69
2021/03/15 05:08:13;;;;;;;9.52;7.07;;;5.90;1.00;;;;;;5093667;28;20636;-69
2021/03/15 05:10:40;;;;;;;10.45;6.95;;;6.00;99.90;;;;;;5092852;28;20171;-69
2021/03/15 05:13:06;;;;;;;9.43;6.60;;;5.80;99.90;;;;;;5092750;28;20213;-69
2021/03/15 05:15:33;;;;;;;10.82;7.78;;;5.90;99.90;;;;;;5092820;28;20198;-69
2021/03/15 05:17:59;;;;;;;9.93;7.68;;;5.90;99.90;;;;;;5093038;28;20514;-69
2021/03/15 05:20:26;;;;;;;12.65;8.30;;;5.90;99.90;;;;;;5093010;28;20179;-69
2021/03/15 05:22:53;;;;;;;11.48;7.60;;;5.80;99.90;;;;;;5092651;28;20210;-69
2021/03/15 05:25:20;;;;;;;10.15;8.38;;;6.10;99.90;;;;;;5093104;28;20652;-69
2021/03/15 05:27:50;;;;;;;7.90;5.80;;;6.20;99.90;;;;;;5092596;28;20195;-69
2021/03/15 05:30:17;;;;;;;9.48;6.35;;;6.10;99.90;;;;;;5093226;28;20155;-69
2021/03/15 05:32:49;;;;;;;8.30;5.72;;;6.00;99.90;;;;;;5092549;28;20248;-69
2021/03/15 05:35:15;;;;;;;10.13;6.13;;;6.10;99.90;;;;;;5092454;28;20160;-69
2021/03/15 05:37:42;;;;;;;6.35;4.90;;;6.20;1.00;;;;;;5092553;28;20175;-69
2021/03/15 05:40:12;;;;;;;5.65;3.90;;;6.20;1.00;;;;;;5092459;28;20594;-69
2021/03/15 05:42:50;;;;;;;6.43;5.15;;;6.00;99.90;;;;;;5092262;28;20183;-69
2021/03/15 05:45:16;;;;;;;5.78;4.80;;;6.10;99.90;;;;;;5092443;28;20262;-69
2021/03/15 05:48:03;;;;;;;8.80;5.53;;;6.10;99.90;;;;;;5092180;28;20264;-69
2021/03/15 05:50:48;;;;;;;5.75;4.80;;;6.20;99.90;;;;;;5092178;28;20140;-69
2021/03/15 05:53:35;;;;;;;3.70;3.28;;;5.80;1.00;;;;;;5092217;28;20179;-70
2021/03/15 05:56:29;;;;;;;3.45;2.90;;;5.80;1.00;;;;;;5091308;28;20633;-69
2021/03/15 05:59:21;;;;;;;2.95;2.30;;;5.80;61.70;;;;;;5091992;28;20220;-69
2021/03/15 06:01:59;;;;;;;4.00;2.53;;;5.80;99.90;;;;;;5060838;28;20703;-69
2021/03/15 06:04:43;;;;;;;4.63;4.18;;;5.80;1.00;;;;;;5092057;28;20163;-69
2021/03/15 06:07:11;;;;;;;6.53;3.80;;;5.80;1.00;;;;;;5072220;28;564783;-68
2021/03/15 06:09:44;;;;;;;5.32;3.28;;;5.90;99.90;;;;;;5092641;28;20395;-69
2021/03/15 06:12:22;;;;;;;14.05;3.58;;;6.00;99.90;;;;;;5092793;28;20186;-69
2021/03/15 06:14:48;;;;;;;3.85;2.78;;;6.00;99.90;;;;;;5092574;28;20187;-69
2021/03/15 06:17:14;;;;;;;5.30;3.77;;;6.00;1.00;;;;;;5092750;28;20170;-69
2021/03/15 06:19:41;;;;;;;6.43;4.32;;;6.00;99.90;;;;;;5092641;28;20752;-69
2021/03/15 06:22:08;;;;;;;5.60;4.63;;;6.00;99.90;;;;;;5092659;28;20191;-69
2021/03/15 06:24:35;;;;;;;6.95;4.80;;;5.90;1.00;;;;;;5092327;28;20658;-68
2021/03/15 06:27:03;;;;;;;7.82;4.45;;;6.00;99.90;;;;;;5092456;28;20195;-69
2021/03/15 06:29:29;;;;;;;6.50;4.65;;;6.00;99.90;;;;;;5092729;28;20182;-69
2021/03/15 06:31:57;;;;;;;6.30;4.55;;;6.00;99.90;;;;;;5092717;28;20673;-68
2021/03/15 06:34:25;;;;;;;6.95;5.05;;;6.10;1.00;;;;;;5091009;28;20175;-69
2021/03/15 06:36:51;;;;;;;9.70;6.03;;;6.00;99.90;;;;;;5092642;28;20164;-69
2021/03/15 06:39:19;;;;;;;8.13;6.13;;;6.10;1.00;;;;;;5092711;28;20179;-69
2021/03/15 06:41:46;;;;;;;7.55;6.20;;;6.10;1.00;;;;;;5092495;28;20198;-70
2021/03/15 06:44:12;;;;;;;7.88;5.40;;;6.00;99.90;;;;;;5093152;28;20163;-69
2021/03/15 06:46:40;;;;;;;10.63;6.40;;;5.80;99.90;;;;;;5092068;28;20203;-70
2021/03/15 06:49:06;;;;;;;8.75;6.45;;;5.70;99.90;;;;;;5092168;28;20636;-70
2021/03/15 06:51:31;;;;;;;13.73;7.33;;;5.90;99.90;;;;;;5091541;28;20262;-69
2021/03/15 06:53:57;;;;;;;10.80;7.77;;;6.00;99.90;;;;;;5090841;28;20213;-70
2021/03/15 06:56:24;;;;;;;11.33;8.40;;;5.90;99.90;;;;;;5092848;28;20175;-70
2021/03/15 06:58:55;;;;;;;11.70;8.65;;;6.00;99.90;;;;;;5092045;28;20540;-70
2021/03/15 07:01:25;;;;;;;10.20;7.40;;;6.10;99.90;;;;;;5092013;28;20531;-69
2021/03/15 07:04:11;;;;;;;12.43;8.63;;;6.20;1.00;;;;;;5092253;28;20172;-69
2021/03/15 07:06:41;;;;;;;11.38;8.27;;;6.30;99.90;;;;;;5091857;28;20199;-70
2021/03/15 07:09:08;;;;;;;15.55;7.95;;;6.20;99.90;;;;;;5096599;28;20286;-70
2021/03/15 07:11:34;;;;;;;10.23;7.40;;;6.20;99.90;;;;;;5095624;28;20183;-69
2021/03/15 07:13:59;;;;;;;10.10;7.33;;;6.20;99.90;;;;;;5095687;28;20531;-69
2021/03/15 07:16:28;;;;;;;11.37;7.40;;;6.00;99.90;;;;;;5095955;28;20171;-69
2021/03/15 07:18:54;;;;;;;13.60;7.05;;;6.10;99.90;;;;;;5095427;28;20247;-69
2021/03/15 07:21:36;;;;;;;14.45;8.07;;;6.00;1.00;;;;;;5095508;28;20250;-69
2021/03/15 07:24:01;;;;;;;13.73;7.93;;;5.80;1.00;;;;;;5095210;28;20159;-69
2021/03/15 07:26:31;;;;;;;11.90;8.50;;;6.00;76.30;;;;;;5095097;28;20233;-69
2021/03/15 07:28:58;;;;;;;12.15;8.00;;;6.10;1.00;;;;;;5095233;28;20170;-68
2021/03/15 07:31:29;;;;;;;13.20;9.45;;;6.00;1.00;;;;;;5095448;28;20533;-69
2021/03/15 07:33:54;;;;;;;15.93;10.07;;;6.30;1.00;;;;;;5095752;28;20708;-69
2021/03/15 07:36:27;;;;;;;13.00;8.90;;;6.40;1.00;;;;;;5095280;28;20195;-69
2021/03/15 07:38:54;;;;;;;13.88;11.25;;;6.10;99.90;;;;;;5095171;28;20534;-69
2021/03/15 07:41:21;;;;;;;14.73;9.80;;;6.50;99.90;;;;;;5095336;28;20164;-70
2021/03/15 07:43:48;;;;;;;14.40;10.00;;;6.70;1.00;;;;;;5095250;28;20168;-69
2021/03/15 07:46:28;;;;;;;18.92;11.65;;;6.50;1.00;;;;;;5094911;28;20245;-69
2021/03/15 07:48:58;;;;;;;14.52;10.75;;;6.80;99.90;;;;;;5094810;28;20246;-69
2021/03/15 07:51:35;;;;;;;15.15;10.85;;;6.80;99.90;;;;;;5095545;28;20156;-69
2021/03/15 07:54:07;;;;;;;17.17;11.98;;;6.70;1.00;;;;;;5095509;28;20238;-69
2021/03/15 07:56:33;;;;;;;19.23;12.02;;;6.60;99.90;;;;;;5095121;28;20172;-69
2021/03/15 07:58:59;;;;;;;17.42;13.45;;;6.70;77.20;;;;;;5095797;28;20250;-69
2021/03/15 08:01:25;;;;;;;17.10;10.87;;;6.60;1.00;;;;;;5095087;28;20605;-68
2021/03/15 08:03:52;;;;;;;15.70;11.20;;;6.70;99.90;;;;;;5094808;28;20380;-68
2021/03/15 08:06:18;;;;;;;15.02;9.60;;;6.80;1.80;;;;;;5094650;28;20452;-69
2021/03/15 08:08:44;;;;;;;14.13;9.68;;;6.80;99.90;;;;;;5095201;28;20183;-69
2021/03/15 08:11:14;;;;;;;11.40;8.30;;;7.10;99.90;;;;;;5094811;28;20197;-69
2021/03/15 08:13:53;;;;;;;9.38;7.05;;;6.90;99.90;;;;;;5094647;28;20380;-68
2021/03/15 08:16:21;;;;;;;9.32;6.80;;;7.00;50.90;;;;;;5094525;28;20163;-69
2021/03/15 08:18:48;;;;;;;13.02;7.78;;;6.50;40.00;;;;;;5093662;28;20163;-69
2021/03/15 08:21:31;;;;;;;10.07;6.65;;;6.60;99.90;;;;;;5094480;28;20167;-69
2021/03/15 08:23:58;;;;;;;12.82;7.53;;;6.60;1.00;;;;;;5094287;28;20588;-69
2021/03/15 08:26:24;;;;;;;9.40;7.28;;;6.90;1.00;;;;;;5094257;28;20656;-69
2021/03/15 08:28:59;;;;;;;10.52;6.00;;;7.30;99.90;;;;;;5093986;28;20310;-69
2021/03/15 08:31:47;;;;;;;10.60;6.43;;;7.10;99.90;;;;;;5092644;28;20170;-70
2021/03/15 08:34:14;;;;;;;6.20;4.72;;;7.40;99.90;;;;;;5093980;28;20167;-69
2021/03/15 08:36:42;;;;;;;6.55;5.63;;;7.20;99.90;;;;;;5094329;28;20159;-69
2021/03/15 08:39:26;;;;;;;11.88;6.43;;;7.30;99.90;;;;;;5094125;28;20168;-69
2021/03/15 08:42:10;;;;;;;8.25;5.50;;;7.10;99.90;;;;;;5094080;28;20187;-69
2021/03/15 08:44:40;;;;;;;7.80;5.60;;;7.50;99.90;;;;;;5094188;28;20176;-69
2021/03/15 08:47:06;;;;;;;9.05;5.43;;;7.80;99.90;;;;;;5093997;28;20249;-69
2021/03/15 08:49:34;;;;;;;9.18;5.35;;;7.40;99.90;;;;;;5093825;28;20636;-69
2021/03/15 08:51:59;;;;;;;8.35;4.72;;;7.70;99.90;;;;;;5093797;28;20194;-69
2021/03/15 08:54:43;;;;;;;9.23;5.30;;;7.70;99.90;;;;;;5093592;28;20168;-68
2021/03/15 08:57:30;;;;;;;14.27;6.88;;;7.40;99.90;;;;;;5094010;28;20513;-69
2021/03/15 08:59:57;;;;;;;7.72;5.55;;;7.20;99.90;;;;;;5093750;28;20166;-69
2021/03/15 09:02:36;;;;;;;9.82;5.50;;;7.30;99.90;;;;;;5093291;28;20559;-69
2021/03/15 09:05:25;;;;;;;11.50;4.72;;;7.50;99.90;;;;;;5093589;28;20549;-69
2021/03/15 09:07:52;;;;;;;9.07;4.75;;;7.70;99.90;;;;;;5093264;28;20205;-69
2021/03/15 09:10:23;;;;;;;9.43;4.00;;;7.80;99.90;;;;;;5093333;28;20167;-68
2021/03/15 09:13:26;;;;;;;6.95;3.72;;;7.30;97.40;;;;;;5093202;28;20190;-68
2021/03/15 09:15:54;;;;;;;6.13;3.67;;;7.10;99.90;;;;;;5011468;28;20170;-68
2021/03/15 09:18:54;;;;;;;12.98;4.95;;;6.90;99.90;;;;;;5078748;28;20189;-69
2021/03/15 09:21:23;;;;;;;5.72;3.45;;;7.30;99.90;;;;;;5086797;28;20640;-69
2021/03/15 09:23:49;;;;;;;5.50;3.85;;;7.40;99.90;;;;;;5093309;28;20693;-68
2021/03/15 09:26:29;;;;;;;8.57;4.18;;;7.50;99.40;;;;;;5092758;28;20195;-68
2021/03/15 09:28:57;;;;;;;7.45;4.10;;;7.20;99.90;;;;;;5093011;28;20167;-69
2021/03/15 09:31:24;;;;;;;7.75;4.45;;;7.00;99.90;;;;;;5092700;28;20174;-69
2021/03/15 09:33:49;;;;;;;10.88;4.22;;;7.20;99.90;;;;;;5092792;28;20655;-70
2021/03/15 09:36:29;;;;;;;7.50;4.03;;;7.20;99.90;;;;;;5092901;28;20180;-69
2021/03/15 09:38:55;;;;;;;10.52;5.13;;;6.90;99.90;;;;;;5093153;28;20214;-69
2021/03/15 09:41:25;;;;;;;8.85;3.60;;;7.00;99.90;;;;;;5092545;28;20682;-69
2021/03/15 09:43:51;;;;;;;7.32;4.20;;;7.30;99.90;;;;;;5092975;28;20581;-69
2021/03/15 09:46:25;;;;;;;14.55;4.30;;;7.60;67.70;;;;;;5092928;28;20576;-69
2021/03/15 09:48:50;;;;;;;11.45;4.75;;;7.80;36.50;;;;;;5093100;28;20140;-69
2021/03/15 09:51:25;;;;;;;6.60;4.27;;;8.00;4.00;;;;;;5092628;28;20697;-69
2021/03/15 09:53:50;;;;;;;5.93;3.95;;;7.80;1.00;;;;;;5092582;28;20386;-69
2021/03/15 09:56:16;;;;;;;8.70;3.80;;;7.70;1.00;;;;;;5092698;28;20171;-69
2021/03/15 09:58:42;;;;;;;10.80;3.43;;;7.80;4.40;;;;;;5092706;28;20744;-69
2021/03/15 10:01:12;;;;;;;10.40;4.53;;;7.50;1.00;;;;;;5092379;28;20175;-68
2021/03/15 10:03:37;;;;;;;8.75;5.22;;;7.40;1.00;;;;;;5092537;28;20168;-68
2021/03/15 10:06:03;;;;;;;6.97;3.73;;;7.10;34.30;;;;;;5092385;28;20173;-68
2021/03/15 10:08:29;;;;;;;21.00;6.43;;;6.80;88.20;;;;;;5092994;28;20179;-69
2021/03/15 10:10:57;;;;;;;6.30;4.80;;;6.70;99.90;;;;;;5092665;28;20407;-68
2021/03/15 10:13:22;;;;;;;8.10;4.78;;;6.50;99.90;;;;;;5092643;28;20183;-69
2021/03/15 10:15:48;;;;;;;7.77;4.50;;;6.60;99.90;;;;;;5092526;28;20168;-69
2021/03/15 10:18:17;;;;;;;10.33;3.90;;;6.80;99.90;;;;;;5092733;28;20191;-69
2021/03/15 10:20:43;;;;;;;12.77;4.55;;;7.10;99.90;;;;;;5092794;28;20164;-70
2021/03/15 10:23:12;;;;;;;5.03;4.20;;;7.50;99.90;;;;;;5092586;28;20187;-70
2021/03/15 10:25:40;;;;;;;9.27;4.00;;;7.70;99.90;;;;;;5092716;28;20764;-69
2021/03/15 10:28:06;;;;;;;13.80;4.90;;;8.20;99.90;;;;;;5092410;28;20656;-69
2021/03/15 10:30:34;;;;;;;11.32;4.85;;;8.00;99.90;;;;;;5092376;28;20167;-68
2021/03/15 10:33:00;;;;;;;10.38;4.90;;;8.10;99.90;;;;;;5092911;28;20197;-68
2021/03/15 10:35:29;;;;;;;12.00;4.95;;;8.10;95.60;;;;;;5092565;28;20532;-69
2021/03/15 10:37:57;;;;;;;24.17;6.55;;;8.00;99.90;;;;;;5092394;28;20183;-68
2021/03/15 10:40:24;;;;;;;7.68;4.65;;;7.90;99.10;;;;;;5090965;28;20175;-69
2021/03/15 10:42:50;;;;;;;8.85;4.95;;;7.90;91.10;;;;;;5093855;28;20264;-69
2021/03/15 10:45:16;;;;;;;11.15;5.28;;;8.30;31.50;;;;;;5094784;28;20172;-69
2021/03/15 10:47:43;;;;;;;11.50;4.80;;;8.80;8.20;;;;;;5096797;28;20183;-69
2021/03/15 10:50:33;;;;;;;6.57;4.32;;;8.70;1.00;;;;;;5096317;28;20183;-69
2021/03/15 10:53:17;;;;;;;9.73;4.13;;;8.80;1.00;;;;;;5086605;28;20204;-69
2021/03/15 10:55:44;;;;;;;10.27;3.95;;;9.30;1.00;;;;;;5094757;28;20247;-69
2021/03/15 10:58:19;;;;;;;14.48;4.50;;;8.80;1.00;;;;;;5096012;28;20636;-69
2021/03/15 11:00:59;;;;;;;5.68;2.78;;;8.50;1.00;;;;;;5095673;28;20164;-67
2021/03/15 11:03:30;;;;;;;3.75;1.95;;;8.50;1.00;;;;;;5095737;28;20199;-69
2021/03/15 11:06:12;;;;;;;7.47;2.60;;;8.10;1.00;;;;;;5095456;28;20167;-69
2021/03/15 11:08:38;;;;;;;7.82;2.80;;;8.10;1.00;;;;;;5095721;28;20178;-69
2021/03/15 11:11:21;;;;;;;8.07;2.83;;;8.00;1.00;;;;;;5095691;28;20610;-69
2021/03/15 11:13:55;;;;;;;8.15;2.40;;;7.70;1.00;;;;;;5095950;28;20664;-69
2021/03/15 11:16:30;;;;;;;6.05;2.40;;;7.90;1.00;;;;;;5095689;28;20171;-69
2021/03/15 11:19:05;;;;;;;7.28;3.45;;;7.90;1.00;;;;;;5095315;28;20235;-69
2021/03/15 11:21:32;;;;;;;9.65;3.10;;;8.10;1.00;;;;;;5095604;28;20214;-69
2021/03/15 11:23:59;;;;;;;7.25;2.35;;;7.90;1.00;;;;;;5095702;28;20174;-69
2021/03/15 11:26:26;;;;;;;3.85;2.20;;;8.00;1.00;;;;;;5095303;28;20183;-68
2021/03/15 11:28:54;;;;;;;9.20;2.75;;;8.10;1.00;;;;;;5095552;28;20644;-68
2021/03/15 11:31:23;;;;;;;8.50;2.05;;;8.00;1.00;;;;;;5094990;28;20250;-69
2021/03/15 11:33:57;;;;;;;8.60;1.55;;;8.10;1.00;;;;;;5095416;28;20582;-69
2021/03/15 11:36:25;;;;;;;5.10;1.40;;;8.50;1.00;;;;;;5095306;28;20155;-69
2021/03/15 11:38:54;;;;;;;1.10;0.98;;;8.50;1.00;;;;;;5095063;28;20172;-69
2021/03/15 11:41:25;;;;;;;2.65;1.10;;;8.70;1.00;;;;;;5093668;28;20667;-69
2021/03/15 11:43:51;;;;;;;3.17;1.20;;;8.60;1.00;;;;;;5095621;28;20182;-69
2021/03/15 11:46:17;;;;;;;2.27;1.33;;;8.70;1.00;;;;;;5095698;28;20199;-70
2021/03/15 11:48:44;;;;;;;5.15;1.40;;;8.90;1.00;;;;;;5094562;28;20914;-69
2021/03/15 11:51:15;;;;;;;5.35;1.63;;;9.00;1.00;;;;;;5093139;28;20229;-70
2021/03/15 11:53:43;;;;;;;3.97;1.45;;;9.10;1.00;;;;;;5094687;28;20151;-70
2021/03/15 11:56:09;;;;;;;5.25;1.83;;;9.50;1.00;;;;;;5094557;28;20564;-69
2021/03/15 11:58:35;;;;;;;8.35;1.52;;;9.40;1.00;;;;;;5094621;28;20195;-69
2021/03/15 12:01:02;;;;;;;5.05;1.90;;;8.80;1.00;;;;;;5094937;28;20509;-70
2021/03/15 12:03:28;;;;;;;5.80;1.55;;;8.70;1.00;;;;;;5094915;28;20186;-67
2021/03/15 12:05:53;;;;;;;6.60;2.27;;;9.60;1.00;;;;;;5094481;28;20168;-69
2021/03/15 12:08:19;;;;;;;8.03;2.07;;;9.50;1.00;;;;;;5094628;28;20193;-68
2021/03/15 12:10:44;;;;;;;4.43;1.67;;;9.50;1.00;;;;;;5094605;28;20563;-70
2021/03/15 12:13:10;;;;;;;1.83;1.10;;;9.10;1.00;;;;;;5094799;28;20179;-68
2021/03/15 12:15:37;;;;;;;6.33;2.00;;;9.10;1.00;;;;;;5094117;28;20639;-67
2021/03/15 12:18:06;;;;;;;6.30;1.55;;;9.10;1.00;;;;;;5094125;28;20194;-69
2021/03/15 12:20:33;;;;;;;6.70;1.55;;;9.20;1.00;;;;;;5093682;28;20208;-69
2021/03/15 12:22:58;;;;;;;3.30;1.80;;;8.90;1.00;;;;;;5093809;28;20198;-68
2021/03/15 12:25:25;;;;;;;2.80;1.27;;;8.60;1.00;;;;;;5093978;28;20175;-68
2021/03/15 12:27:52;;;;;;;5.63;1.30;;;8.50;1.00;;;;;;5093945;28;20782;-68
2021/03/15 12:30:20;;;;;;;4.55;2.22;;;8.70;1.00;;;;;;5093333;28;20160;-68
2021/03/15 12:32:46;;;;;;;7.60;1.77;;;8.90;1.00;;;;;;5093587;28;20187;-68
2021/03/15 12:35:12;;;;;;;6.80;2.38;;;9.00;1.00;;;;;;5094204;28;20163;-70
2021/03/15 12:37:37;;;;;;;5.10;1.23;;;8.90;1.00;;;;;;5093758;28;20566;-67
2021/03/15 12:40:04;;;;;;;6.87;1.50;;;8.80;1.00;;;;;;5093694;28;20409;-69
2021/03/15 12:42:29;;;;;;;9.27;1.73;;;9.80;1.00;;;;;;5093753;28;20603;-69
2021/03/15 12:44:55;;;;;;;6.03;1.43;;;9.90;1.00;;;;;;5093608;28;20198;-69
2021/03/15 12:47:21;;;;;;;8.27;1.40;;;9.70;1.00;;;;;;5093661;28;20537;-69
2021/03/15 12:49:47;;;;;;;7.90;1.97;;;9.50;1.00;;;;;;5093824;28;20256;-70
2021/03/15 12:52:12;;;;;;;3.90;0.80;;;9.90;1.00;;;;;;5093682;28;20179;-69
2021/03/15 12:54:38;;;;;;;6.73;1.50;;;9.40;1.00;;;;;;5093992;28;20159;-69
2021/03/15 12:57:04;;;;;;;6.87;1.17;;;9.30;1.00;;;;;;5093857;28;20254;-68
2021/03/15 12:59:30;;;;;;;4.95;1.02;;;9.00;1.00;;;;;;5093813;28;20397;-69
2021/03/15 13:01:55;;;;;;;1.73;0.83;;;9.00;1.00;;;;;;5093540;28;20240;-69
2021/03/15 13:04:21;;;;;;;1.90;0.80;;;8.40;1.00;;;;;;5093897;28;20246;-68
2021/03/15 13:06:47;;;;;;;4.33;1.03;;;8.10;1.00;;;;;;5092681;28;20241;-68
2021/03/15 13:09:12;;;;;;;2.37;0.60;;;8.20;1.00;;;;;;5093103;28;20212;-68
2021/03/15 13:11:38;;;;;;;5.80;1.33;;;8.10;1.00;;;;;;5093334;28;20183;-69